sensor_id;sensor_type;location;lat;lon;timestamp;P1;durP1;ratioP1;P2;durP2;ratioP2
74152;SDS011;62505;46.070;14.492;2023-04-03T00:01:47;2.92;;;2.42;;
74152;SDS011;62505;46.070;14.492;2023-04-03T00:04:14;3.38;;;2.45;;
74152;SDS011;62505;46.070;14.492;2023-04-03T00:06:41;3.65;;;2.67;;
74152;SDS011;62505;46.070;14.492;2023-04-03T00:09:08;3.30;;;2.17;;
74152;SDS011;62505;46.070;14.492;2023-04-03T00:11:36;4.05;;;2.83;;
74152;SDS011;62505;46.070;14.492;2023-04-03T00:14:03;4.20;;;2.33;;
74152;SDS011;62505;46.070;14.492;2023-04-03T00:16:30;3.58;;;2.42;;
74152;SDS011;62505;46.070;14.492;2023-04-03T00:18:57;4.20;;;2.72;;
74152;SDS011;62505;46.070;14.492;2023-04-03T00:21:24;4.07;;;2.35;;
74152;SDS011;62505;46.070;14.492;2023-04-03T00:23:51;4.00;;;2.30;;
74152;SDS011;62505;46.070;14.492;2023-04-03T00:26:18;3.55;;;2.28;;
74152;SDS011;62505;46.070;14.492;2023-04-03T00:28:47;3.97;;;2.75;;
74152;SDS011;62505;46.070;14.492;2023-04-03T00:31:14;3.33;;;2.72;;
74152;SDS011;62505;46.070;14.492;2023-04-03T00:33:42;4.50;;;2.80;;
74152;SDS011;62505;46.070;14.492;2023-04-03T00:36:09;4.85;;;2.65;;
74152;SDS011;62505;46.070;14.492;2023-04-03T00:38:38;3.40;;;2.47;;
74152;SDS011;62505;46.070;14.492;2023-04-03T00:41:05;4.28;;;2.40;;
74152;SDS011;62505;46.070;14.492;2023-04-03T00:43:32;3.67;;;2.50;;
74152;SDS011;62505;46.070;14.492;2023-04-03T00:46:01;3.58;;;2.50;;
74152;SDS011;62505;46.070;14.492;2023-04-03T00:48:29;3.17;;;2.35;;
74152;SDS011;62505;46.070;14.492;2023-04-03T00:50:58;4.30;;;2.60;;
74152;SDS011;62505;46.070;14.492;2023-04-03T00:53:27;3.00;;;2.35;;
74152;SDS011;62505;46.070;14.492;2023-04-03T00:55:59;3.00;;;2.40;;
74152;SDS011;62505;46.070;14.492;2023-04-03T00:58:28;4.20;;;2.33;;
74152;SDS011;62505;46.070;14.492;2023-04-03T01:01:02;3.85;;;2.50;;
74152;SDS011;62505;46.070;14.492;2023-04-03T01:03:32;3.85;;;2.60;;
74152;SDS011;62505;46.070;14.492;2023-04-03T01:05:59;2.83;;;2.50;;
74152;SDS011;62505;46.070;14.492;2023-04-03T01:08:27;5.10;;;2.50;;
74152;SDS011;62505;46.070;14.492;2023-04-03T01:10:54;3.83;;;2.60;;
74152;SDS011;62505;46.070;14.492;2023-04-03T01:13:22;3.45;;;2.70;;
74152;SDS011;62505;46.070;14.492;2023-04-03T01:15:51;3.05;;;2.28;;
74152;SDS011;62505;46.070;14.492;2023-04-03T01:18:20;4.07;;;2.60;;
74152;SDS011;62505;46.070;14.492;2023-04-03T01:23:58;4.03;;;2.22;;
74152;SDS011;62505;46.070;14.492;2023-04-03T01:26:34;2.85;;;2.28;;
74152;SDS011;62505;46.070;14.492;2023-04-03T01:29:01;2.92;;;2.22;;
74152;SDS011;62505;46.070;14.492;2023-04-03T01:31:30;3.42;;;2.58;;
74152;SDS011;62505;46.070;14.492;2023-04-03T01:34:06;4.80;;;2.50;;
74152;SDS011;62505;46.070;14.492;2023-04-03T01:36:33;3.53;;;2.13;;
74152;SDS011;62505;46.070;14.492;2023-04-03T01:39:01;3.33;;;2.72;;
74152;SDS011;62505;46.070;14.492;2023-04-03T01:41:28;3.55;;;2.58;;
74152;SDS011;62505;46.070;14.492;2023-04-03T01:43:55;4.10;;;2.63;;
74152;SDS011;62505;46.070;14.492;2023-04-03T01:46:22;3.42;;;2.30;;
74152;SDS011;62505;46.070;14.492;2023-04-03T01:48:50;3.17;;;2.40;;
74152;SDS011;62505;46.070;14.492;2023-04-03T01:51:17;3.08;;;2.50;;
74152;SDS011;62505;46.070;14.492;2023-04-03T01:53:44;3.22;;;2.08;;
74152;SDS011;62505;46.070;14.492;2023-04-03T01:56:11;3.47;;;2.42;;
74152;SDS011;62505;46.070;14.492;2023-04-03T01:58:38;3.28;;;2.35;;
74152;SDS011;62505;46.070;14.492;2023-04-03T02:01:05;2.72;;;2.22;;
74152;SDS011;62505;46.070;14.492;2023-04-03T02:03:32;3.05;;;2.53;;
74152;SDS011;62505;46.070;14.492;2023-04-03T02:06:01;3.97;;;2.33;;
74152;SDS011;62505;46.070;14.492;2023-04-03T02:08:28;3.10;;;2.67;;
74152;SDS011;62505;46.070;14.492;2023-04-03T02:10:55;3.33;;;2.30;;
74152;SDS011;62505;46.070;14.492;2023-04-03T02:13:22;3.90;;;2.38;;
74152;SDS011;62505;46.070;14.492;2023-04-03T02:15:49;3.80;;;2.55;;
74152;SDS011;62505;46.070;14.492;2023-04-03T02:18:16;2.53;;;2.13;;
74152;SDS011;62505;46.070;14.492;2023-04-03T02:20:43;2.95;;;2.22;;
74152;SDS011;62505;46.070;14.492;2023-04-03T02:23:12;3.55;;;2.47;;
74152;SDS011;62505;46.070;14.492;2023-04-03T02:25:39;3.10;;;2.33;;
74152;SDS011;62505;46.070;14.492;2023-04-03T02:28:06;3.55;;;2.55;;
74152;SDS011;62505;46.070;14.492;2023-04-03T02:30:33;3.40;;;2.45;;
74152;SDS011;62505;46.070;14.492;2023-04-03T02:33:00;3.00;;;2.30;;
74152;SDS011;62505;46.070;14.492;2023-04-03T02:35:27;2.75;;;2.20;;
74152;SDS011;62505;46.070;14.492;2023-04-03T02:37:54;2.83;;;2.33;;
74152;SDS011;62505;46.070;14.492;2023-04-03T02:40:22;3.25;;;2.60;;
74152;SDS011;62505;46.070;14.492;2023-04-03T02:42:49;3.03;;;2.38;;
74152;SDS011;62505;46.070;14.492;2023-04-03T02:45:16;3.13;;;2.00;;
74152;SDS011;62505;46.070;14.492;2023-04-03T02:47:43;3.40;;;2.50;;
74152;SDS011;62505;46.070;14.492;2023-04-03T02:50:10;3.13;;;2.40;;
74152;SDS011;62505;46.070;14.492;2023-04-03T02:52:37;4.10;;;2.53;;
74152;SDS011;62505;46.070;14.492;2023-04-03T02:55:04;5.53;;;2.88;;
74152;SDS011;62505;46.070;14.492;2023-04-03T02:57:34;2.92;;;2.33;;
74152;SDS011;62505;46.070;14.492;2023-04-03T03:00:01;2.78;;;2.20;;
74152;SDS011;62505;46.070;14.492;2023-04-03T03:02:28;3.15;;;2.30;;
74152;SDS011;62505;46.070;14.492;2023-04-03T03:04:55;3.08;;;2.45;;
74152;SDS011;62505;46.070;14.492;2023-04-03T03:07:22;3.42;;;2.55;;
74152;SDS011;62505;46.070;14.492;2023-04-03T03:09:49;3.15;;;2.55;;
74152;SDS011;62505;46.070;14.492;2023-04-03T03:12:16;3.17;;;2.28;;
74152;SDS011;62505;46.070;14.492;2023-04-03T03:14:48;2.70;;;2.03;;
74152;SDS011;62505;46.070;14.492;2023-04-03T03:17:15;3.03;;;2.40;;
74152;SDS011;62505;46.070;14.492;2023-04-03T03:19:42;3.28;;;2.30;;
74152;SDS011;62505;46.070;14.492;2023-04-03T03:22:10;3.58;;;2.58;;
74152;SDS011;62505;46.070;14.492;2023-04-03T03:24:37;3.00;;;2.17;;
74152;SDS011;62505;46.070;14.492;2023-04-03T03:27:04;3.20;;;2.22;;
74152;SDS011;62505;46.070;14.492;2023-04-03T03:29:31;3.22;;;2.10;;
74152;SDS011;62505;46.070;14.492;2023-04-03T03:32:00;4.03;;;2.72;;
74152;SDS011;62505;46.070;14.492;2023-04-03T03:34:27;2.65;;;2.00;;
74152;SDS011;62505;46.070;14.492;2023-04-03T03:36:54;2.90;;;2.42;;
74152;SDS011;62505;46.070;14.492;2023-04-03T03:39:21;3.13;;;2.35;;
74152;SDS011;62505;46.070;14.492;2023-04-03T03:41:48;4.53;;;2.60;;
74152;SDS011;62505;46.070;14.492;2023-04-03T03:44:15;2.88;;;2.20;;
74152;SDS011;62505;46.070;14.492;2023-04-03T03:46:42;2.75;;;2.35;;
74152;SDS011;62505;46.070;14.492;2023-04-03T03:49:11;3.58;;;2.80;;
74152;SDS011;62505;46.070;14.492;2023-04-03T03:51:38;2.40;;;2.20;;
74152;SDS011;62505;46.070;14.492;2023-04-03T03:54:06;5.53;;;2.30;;
74152;SDS011;62505;46.070;14.492;2023-04-03T03:56:33;4.47;;;2.17;;
74152;SDS011;62505;46.070;14.492;2023-04-03T03:59:00;3.33;;;2.28;;
74152;SDS011;62505;46.070;14.492;2023-04-03T04:01:27;3.13;;;2.45;;
74152;SDS011;62505;46.070;14.492;2023-04-03T04:03:55;2.72;;;2.47;;
74152;SDS011;62505;46.070;14.492;2023-04-03T04:06:23;2.28;;;1.95;;
74152;SDS011;62505;46.070;14.492;2023-04-03T04:08:50;3.95;;;2.58;;
74152;SDS011;62505;46.070;14.492;2023-04-03T04:11:17;4.20;;;2.30;;
74152;SDS011;62505;46.070;14.492;2023-04-03T04:13:44;3.47;;;2.58;;
74152;SDS011;62505;46.070;14.492;2023-04-03T04:16:11;3.10;;;2.15;;
74152;SDS011;62505;46.070;14.492;2023-04-03T04:18:38;2.55;;;2.20;;
74152;SDS011;62505;46.070;14.492;2023-04-03T04:21:05;3.72;;;2.10;;
74152;SDS011;62505;46.070;14.492;2023-04-03T04:23:33;3.20;;;2.28;;
74152;SDS011;62505;46.070;14.492;2023-04-03T04:26:00;2.15;;;1.75;;
74152;SDS011;62505;46.070;14.492;2023-04-03T04:28:27;3.63;;;2.47;;
74152;SDS011;62505;46.070;14.492;2023-04-03T04:30:54;3.33;;;2.40;;
74152;SDS011;62505;46.070;14.492;2023-04-03T04:33:21;2.50;;;2.03;;
74152;SDS011;62505;46.070;14.492;2023-04-03T04:35:48;4.05;;;1.83;;
74152;SDS011;62505;46.070;14.492;2023-04-03T04:38:16;3.58;;;2.15;;
74152;SDS011;62505;46.070;14.492;2023-04-03T04:40:45;2.38;;;2.08;;
74152;SDS011;62505;46.070;14.492;2023-04-03T04:43:13;3.03;;;1.70;;
74152;SDS011;62505;46.070;14.492;2023-04-03T04:45:40;1.73;;;1.55;;
74152;SDS011;62505;46.070;14.492;2023-04-03T04:48:07;2.08;;;1.88;;
74152;SDS011;62505;46.070;14.492;2023-04-03T04:50:34;2.75;;;1.90;;
74152;SDS011;62505;46.070;14.492;2023-04-03T04:53:01;2.42;;;1.63;;
74152;SDS011;62505;46.070;14.492;2023-04-03T04:55:29;2.88;;;1.70;;
74152;SDS011;62505;46.070;14.492;2023-04-03T04:57:57;3.22;;;2.00;;
74152;SDS011;62505;46.070;14.492;2023-04-03T05:00:24;1.90;;;1.60;;
74152;SDS011;62505;46.070;14.492;2023-04-03T05:02:51;2.03;;;1.75;;
74152;SDS011;62505;46.070;14.492;2023-04-03T05:05:18;2.38;;;1.80;;
74152;SDS011;62505;46.070;14.492;2023-04-03T05:07:45;3.83;;;1.70;;
74152;SDS011;62505;46.070;14.492;2023-04-03T05:10:12;2.22;;;1.52;;
74152;SDS011;62505;46.070;14.492;2023-04-03T05:12:39;5.47;;;2.00;;
74152;SDS011;62505;46.070;14.492;2023-04-03T05:15:08;2.13;;;1.70;;
74152;SDS011;62505;46.070;14.492;2023-04-03T05:17:36;2.38;;;1.80;;
74152;SDS011;62505;46.070;14.492;2023-04-03T05:20:03;1.58;;;1.42;;
74152;SDS011;62505;46.070;14.492;2023-04-03T05:22:31;2.30;;;1.58;;
74152;SDS011;62505;46.070;14.492;2023-04-03T05:24:58;2.95;;;1.92;;
74152;SDS011;62505;46.070;14.492;2023-04-03T05:27:25;3.00;;;1.90;;
74152;SDS011;62505;46.070;14.492;2023-04-03T05:29:53;4.38;;;1.90;;
74152;SDS011;62505;46.070;14.492;2023-04-03T05:32:22;2.38;;;1.67;;
74152;SDS011;62505;46.070;14.492;2023-04-03T05:34:50;2.28;;;1.90;;
74152;SDS011;62505;46.070;14.492;2023-04-03T05:37:17;2.83;;;1.92;;
74152;SDS011;62505;46.070;14.492;2023-04-03T05:39:45;2.15;;;1.83;;
74152;SDS011;62505;46.070;14.492;2023-04-03T05:42:12;2.97;;;2.08;;
74152;SDS011;62505;46.070;14.492;2023-04-03T05:44:40;3.47;;;2.05;;
74152;SDS011;62505;46.070;14.492;2023-04-03T05:47:08;2.80;;;2.00;;
74152;SDS011;62505;46.070;14.492;2023-04-03T05:49:36;4.65;;;2.17;;
74152;SDS011;62505;46.070;14.492;2023-04-03T05:52:05;5.97;;;3.30;;
74152;SDS011;62505;46.070;14.492;2023-04-03T05:54:32;5.75;;;2.88;;
74152;SDS011;62505;46.070;14.492;2023-04-03T05:56:59;6.22;;;2.67;;
74152;SDS011;62505;46.070;14.492;2023-04-03T05:59:26;5.03;;;2.63;;
74152;SDS011;62505;46.070;14.492;2023-04-03T06:01:53;5.07;;;2.78;;
74152;SDS011;62505;46.070;14.492;2023-04-03T06:04:21;4.75;;;2.25;;
74152;SDS011;62505;46.070;14.492;2023-04-03T06:06:50;4.72;;;2.50;;
74152;SDS011;62505;46.070;14.492;2023-04-03T06:09:20;3.63;;;2.60;;
74152;SDS011;62505;46.070;14.492;2023-04-03T06:11:48;5.45;;;2.50;;
74152;SDS011;62505;46.070;14.492;2023-04-03T06:14:15;6.03;;;2.70;;
74152;SDS011;62505;46.070;14.492;2023-04-03T06:16:42;3.22;;;2.40;;
74152;SDS011;62505;46.070;14.492;2023-04-03T06:19:10;5.53;;;2.70;;
74152;SDS011;62505;46.070;14.492;2023-04-03T06:21:38;5.63;;;2.53;;
74152;SDS011;62505;46.070;14.492;2023-04-03T06:24:06;4.72;;;3.15;;
74152;SDS011;62505;46.070;14.492;2023-04-03T06:26:33;5.10;;;2.75;;
74152;SDS011;62505;46.070;14.492;2023-04-03T06:29:01;5.28;;;3.08;;
74152;SDS011;62505;46.070;14.492;2023-04-03T06:31:28;3.67;;;2.40;;
74152;SDS011;62505;46.070;14.492;2023-04-03T06:33:55;5.10;;;2.83;;
74152;SDS011;62505;46.070;14.492;2023-04-03T06:36:22;5.70;;;2.60;;
74152;SDS011;62505;46.070;14.492;2023-04-03T06:38:49;5.00;;;2.70;;
74152;SDS011;62505;46.070;14.492;2023-04-03T06:41:17;3.90;;;2.70;;
74152;SDS011;62505;46.070;14.492;2023-04-03T06:43:44;8.55;;;2.85;;
74152;SDS011;62505;46.070;14.492;2023-04-03T06:46:14;5.82;;;2.55;;
74152;SDS011;62505;46.070;14.492;2023-04-03T06:48:43;4.57;;;2.38;;
74152;SDS011;62505;46.070;14.492;2023-04-03T06:51:15;3.10;;;2.53;;
74152;SDS011;62505;46.070;14.492;2023-04-03T06:53:45;5.63;;;2.33;;
74152;SDS011;62505;46.070;14.492;2023-04-03T06:56:12;5.68;;;2.60;;
74152;SDS011;62505;46.070;14.492;2023-04-03T06:58:40;4.28;;;2.15;;
74152;SDS011;62505;46.070;14.492;2023-04-03T07:01:07;5.25;;;2.33;;
74152;SDS011;62505;46.070;14.492;2023-04-03T07:03:36;3.67;;;2.40;;
74152;SDS011;62505;46.070;14.492;2023-04-03T07:06:03;4.65;;;2.55;;
74152;SDS011;62505;46.070;14.492;2023-04-03T07:08:30;3.33;;;2.28;;
74152;SDS011;62505;46.070;14.492;2023-04-03T07:10:58;7.82;;;2.60;;
74152;SDS011;62505;46.070;14.492;2023-04-03T07:13:25;5.15;;;2.63;;
74152;SDS011;62505;46.070;14.492;2023-04-03T07:15:54;5.75;;;2.30;;
74152;SDS011;62505;46.070;14.492;2023-04-03T07:18:21;3.33;;;2.33;;
74152;SDS011;62505;46.070;14.492;2023-04-03T07:20:48;3.58;;;2.53;;
74152;SDS011;62505;46.070;14.492;2023-04-03T07:23:15;3.58;;;2.38;;
74152;SDS011;62505;46.070;14.492;2023-04-03T07:25:43;5.45;;;2.42;;
74152;SDS011;62505;46.070;14.492;2023-04-03T07:28:10;3.92;;;2.50;;
74152;SDS011;62505;46.070;14.492;2023-04-03T07:30:47;3.72;;;2.17;;
74152;SDS011;62505;46.070;14.492;2023-04-03T07:33:17;4.85;;;2.45;;
74152;SDS011;62505;46.070;14.492;2023-04-03T07:35:45;5.00;;;2.53;;
74152;SDS011;62505;46.070;14.492;2023-04-03T07:38:13;3.50;;;2.38;;
74152;SDS011;62505;46.070;14.492;2023-04-03T07:40:41;5.10;;;2.20;;
74152;SDS011;62505;46.070;14.492;2023-04-03T07:43:12;4.00;;;2.47;;
74152;SDS011;62505;46.070;14.492;2023-04-03T07:45:39;4.65;;;2.47;;
74152;SDS011;62505;46.070;14.492;2023-04-03T07:48:07;4.90;;;2.22;;
74152;SDS011;62505;46.070;14.492;2023-04-03T07:50:35;4.22;;;2.42;;
74152;SDS011;62505;46.070;14.492;2023-04-03T07:53:02;2.88;;;1.80;;
74152;SDS011;62505;46.070;14.492;2023-04-03T07:55:29;3.83;;;2.47;;
74152;SDS011;62505;46.070;14.492;2023-04-03T07:57:58;3.33;;;2.30;;
74152;SDS011;62505;46.070;14.492;2023-04-03T08:00:25;4.32;;;2.30;;
74152;SDS011;62505;46.070;14.492;2023-04-03T08:02:52;4.07;;;2.60;;
74152;SDS011;62505;46.070;14.492;2023-04-03T08:05:19;4.95;;;2.72;;
74152;SDS011;62505;46.070;14.492;2023-04-03T08:07:48;3.65;;;2.47;;
74152;SDS011;62505;46.070;14.492;2023-04-03T08:10:15;5.43;;;2.85;;
74152;SDS011;62505;46.070;14.492;2023-04-03T08:12:45;4.78;;;3.00;;
74152;SDS011;62505;46.070;14.492;2023-04-03T08:15:12;2.75;;;2.20;;
74152;SDS011;62505;46.070;14.492;2023-04-03T08:17:39;4.38;;;2.75;;
74152;SDS011;62505;46.070;14.492;2023-04-03T08:20:07;5.03;;;2.55;;
74152;SDS011;62505;46.070;14.492;2023-04-03T08:22:36;4.40;;;2.45;;
74152;SDS011;62505;46.070;14.492;2023-04-03T08:25:04;4.15;;;2.72;;
74152;SDS011;62505;46.070;14.492;2023-04-03T08:27:32;5.72;;;2.55;;
74152;SDS011;62505;46.070;14.492;2023-04-03T08:29:59;3.88;;;2.80;;
74152;SDS011;62505;46.070;14.492;2023-04-03T08:32:26;4.63;;;2.30;;
74152;SDS011;62505;46.070;14.492;2023-04-03T08:34:53;12.55;;;2.83;;
74152;SDS011;62505;46.070;14.492;2023-04-03T08:37:20;3.45;;;2.40;;
74152;SDS011;62505;46.070;14.492;2023-04-03T08:39:47;2.67;;;2.28;;
74152;SDS011;62505;46.070;14.492;2023-04-03T08:42:18;6.30;;;2.83;;
74152;SDS011;62505;46.070;14.492;2023-04-03T08:44:57;3.40;;;2.65;;
74152;SDS011;62505;46.070;14.492;2023-04-03T08:47:28;3.90;;;2.58;;
74152;SDS011;62505;46.070;14.492;2023-04-03T08:50:04;4.20;;;2.53;;
74152;SDS011;62505;46.070;14.492;2023-04-03T08:52:34;4.60;;;2.95;;
74152;SDS011;62505;46.070;14.492;2023-04-03T08:55:05;3.30;;;2.10;;
74152;SDS011;62505;46.070;14.492;2023-04-03T08:57:41;3.55;;;2.67;;
74152;SDS011;62505;46.070;14.492;2023-04-03T09:00:15;2.97;;;2.40;;
74152;SDS011;62505;46.070;14.492;2023-04-03T09:02:45;3.42;;;2.50;;
74152;SDS011;62505;46.070;14.492;2023-04-03T09:05:14;4.85;;;2.45;;
74152;SDS011;62505;46.070;14.492;2023-04-03T09:07:44;3.35;;;2.58;;
74152;SDS011;62505;46.070;14.492;2023-04-03T09:10:13;2.80;;;2.15;;
74152;SDS011;62505;46.070;14.492;2023-04-03T09:12:44;3.33;;;2.60;;
74152;SDS011;62505;46.070;14.492;2023-04-03T09:15:17;3.92;;;2.55;;
74152;SDS011;62505;46.070;14.492;2023-04-03T09:17:49;5.05;;;2.97;;
74152;SDS011;62505;46.070;14.492;2023-04-03T09:20:27;3.42;;;2.42;;
74152;SDS011;62505;46.070;14.492;2023-04-03T09:23:08;4.35;;;2.60;;
74152;SDS011;62505;46.070;14.492;2023-04-03T09:25:43;6.07;;;2.47;;
74152;SDS011;62505;46.070;14.492;2023-04-03T09:28:12;6.63;;;2.45;;
74152;SDS011;62505;46.070;14.492;2023-04-03T09:30:39;5.97;;;2.20;;
74152;SDS011;62505;46.070;14.492;2023-04-03T09:33:07;5.60;;;2.97;;
74152;SDS011;62505;46.070;14.492;2023-04-03T09:35:36;4.00;;;2.47;;
74152;SDS011;62505;46.070;14.492;2023-04-03T09:38:14;4.03;;;2.28;;
74152;SDS011;62505;46.070;14.492;2023-04-03T09:40:44;6.15;;;2.80;;
74152;SDS011;62505;46.070;14.492;2023-04-03T09:43:24;2.65;;;2.25;;
74152;SDS011;62505;46.070;14.492;2023-04-03T09:45:52;2.97;;;2.38;;
74152;SDS011;62505;46.070;14.492;2023-04-03T09:48:20;4.38;;;2.53;;
74152;SDS011;62505;46.070;14.492;2023-04-03T09:50:54;9.52;;;2.53;;
74152;SDS011;62505;46.070;14.492;2023-04-03T09:53:28;4.13;;;2.75;;
74152;SDS011;62505;46.070;14.492;2023-04-03T09:56:01;4.07;;;2.80;;
74152;SDS011;62505;46.070;14.492;2023-04-03T09:58:31;4.53;;;2.40;;
74152;SDS011;62505;46.070;14.492;2023-04-03T10:01:00;3.45;;;2.67;;
74152;SDS011;62505;46.070;14.492;2023-04-03T10:03:29;3.33;;;2.85;;
74152;SDS011;62505;46.070;14.492;2023-04-03T10:05:59;4.93;;;2.92;;
74152;SDS011;62505;46.070;14.492;2023-04-03T10:08:28;6.05;;;2.97;;
74152;SDS011;62505;46.070;14.492;2023-04-03T10:11:06;4.45;;;3.17;;
74152;SDS011;62505;46.070;14.492;2023-04-03T10:13:51;2.83;;;2.25;;
74152;SDS011;62505;46.070;14.492;2023-04-03T10:16:20;6.10;;;3.00;;
74152;SDS011;62505;46.070;14.492;2023-04-03T10:18:54;5.15;;;3.08;;
74152;SDS011;62505;46.070;14.492;2023-04-03T10:21:34;5.18;;;3.10;;
74152;SDS011;62505;46.070;14.492;2023-04-03T10:24:09;3.20;;;2.53;;
74152;SDS011;62505;46.070;14.492;2023-04-03T10:26:43;4.45;;;2.97;;
74152;SDS011;62505;46.070;14.492;2023-04-03T10:29:20;5.13;;;2.97;;
74152;SDS011;62505;46.070;14.492;2023-04-03T10:32:00;4.35;;;2.88;;
74152;SDS011;62505;46.070;14.492;2023-04-03T10:34:39;4.55;;;2.50;;
74152;SDS011;62505;46.070;14.492;2023-04-03T10:37:10;6.72;;;3.00;;
74152;SDS011;62505;46.070;14.492;2023-04-03T10:39:48;3.63;;;2.85;;
74152;SDS011;62505;46.070;14.492;2023-04-03T10:42:22;4.97;;;2.55;;
74152;SDS011;62505;46.070;14.492;2023-04-03T10:45:03;4.40;;;2.85;;
74152;SDS011;62505;46.070;14.492;2023-04-03T10:47:49;3.63;;;2.60;;
74152;SDS011;62505;46.070;14.492;2023-04-03T10:50:27;5.32;;;2.50;;
74152;SDS011;62505;46.070;14.492;2023-04-03T10:53:04;2.97;;;2.58;;
74152;SDS011;62505;46.070;14.492;2023-04-03T10:55:39;3.08;;;2.60;;
74152;SDS011;62505;46.070;14.492;2023-04-03T10:58:14;4.05;;;2.78;;
74152;SDS011;62505;46.070;14.492;2023-04-03T11:00:48;3.75;;;2.55;;
74152;SDS011;62505;46.070;14.492;2023-04-03T11:03:23;3.55;;;2.83;;
74152;SDS011;62505;46.070;14.492;2023-04-03T11:05:57;4.05;;;2.90;;
74152;SDS011;62505;46.070;14.492;2023-04-03T11:08:28;2.97;;;2.67;;
74152;SDS011;62505;46.070;14.492;2023-04-03T11:11:00;3.03;;;2.25;;
74152;SDS011;62505;46.070;14.492;2023-04-03T11:13:33;3.50;;;2.72;;
74152;SDS011;62505;46.070;14.492;2023-04-03T11:16:05;3.22;;;2.40;;
74152;SDS011;62505;46.070;14.492;2023-04-03T11:18:33;3.97;;;2.47;;
74152;SDS011;62505;46.070;14.492;2023-04-03T11:21:07;3.42;;;2.28;;
74152;SDS011;62505;46.070;14.492;2023-04-03T11:23:39;4.68;;;2.60;;
74152;SDS011;62505;46.070;14.492;2023-04-03T11:26:08;2.60;;;2.35;;
74152;SDS011;62505;46.070;14.492;2023-04-03T11:28:38;2.63;;;2.20;;
74152;SDS011;62505;46.070;14.492;2023-04-03T11:31:10;3.00;;;2.20;;
74152;SDS011;62505;46.070;14.492;2023-04-03T11:33:47;3.80;;;2.63;;
74152;SDS011;62505;46.070;14.492;2023-04-03T11:36:22;2.90;;;2.50;;
74152;SDS011;62505;46.070;14.492;2023-04-03T11:38:52;3.22;;;2.40;;
74152;SDS011;62505;46.070;14.492;2023-04-03T11:41:25;2.80;;;2.33;;
74152;SDS011;62505;46.070;14.492;2023-04-03T11:43:55;4.53;;;2.45;;
74152;SDS011;62505;46.070;14.492;2023-04-03T11:55:43;3.03;;;2.33;;
74152;SDS011;62505;46.070;14.492;2023-04-03T11:58:18;2.20;;;1.90;;
74152;SDS011;62505;46.070;14.492;2023-04-03T12:00:56;2.65;;;2.03;;
74152;SDS011;62505;46.070;14.492;2023-04-03T12:12:32;4.22;;;2.13;;
74152;SDS011;62505;46.070;14.492;2023-04-03T12:21:19;3.58;;;2.17;;
74152;SDS011;62505;46.070;14.492;2023-04-03T12:23:56;2.28;;;1.98;;
74152;SDS011;62505;46.070;14.492;2023-04-03T12:26:30;3.08;;;2.40;;
74152;SDS011;62505;46.070;14.492;2023-04-03T12:29:02;5.05;;;2.00;;
74152;SDS011;62505;46.070;14.492;2023-04-03T12:31:42;3.15;;;1.90;;
74152;SDS011;62505;46.070;14.492;2023-04-03T12:34:24;2.28;;;1.88;;
74152;SDS011;62505;46.070;14.492;2023-04-03T12:37:07;2.30;;;2.10;;
74152;SDS011;62505;46.070;14.492;2023-04-03T12:42:41;2.03;;;1.70;;
74152;SDS011;62505;46.070;14.492;2023-04-03T12:45:22;2.40;;;1.77;;
74152;SDS011;62505;46.070;14.492;2023-04-03T12:47:51;2.28;;;1.67;;
74152;SDS011;62505;46.070;14.492;2023-04-03T12:50:23;2.20;;;2.00;;
74152;SDS011;62505;46.070;14.492;2023-04-03T12:52:58;4.00;;;2.30;;
74152;SDS011;62505;46.070;14.492;2023-04-03T12:55:27;2.47;;;1.73;;
74152;SDS011;62505;46.070;14.492;2023-04-03T12:57:54;2.30;;;1.92;;
74152;SDS011;62505;46.070;14.492;2023-04-03T13:00:27;3.00;;;2.00;;
74152;SDS011;62505;46.070;14.492;2023-04-03T13:02:57;2.75;;;1.90;;
74152;SDS011;62505;46.070;14.492;2023-04-03T13:05:25;2.67;;;1.95;;
74152;SDS011;62505;46.070;14.492;2023-04-03T13:07:54;2.22;;;1.90;;
74152;SDS011;62505;46.070;14.492;2023-04-03T13:10:26;3.33;;;2.13;;
74152;SDS011;62505;46.070;14.492;2023-04-03T13:12:54;2.65;;;1.63;;
74152;SDS011;62505;46.070;14.492;2023-04-03T13:15:23;5.63;;;2.08;;
74152;SDS011;62505;46.070;14.492;2023-04-03T13:17:51;4.03;;;1.88;;
74152;SDS011;62505;46.070;14.492;2023-04-03T13:20:21;6.53;;;2.03;;
74152;SDS011;62505;46.070;14.492;2023-04-03T13:22:52;2.05;;;1.75;;
74152;SDS011;62505;46.070;14.492;2023-04-03T13:25:24;2.05;;;1.80;;
74152;SDS011;62505;46.070;14.492;2023-04-03T13:27:55;2.13;;;1.70;;
74152;SDS011;62505;46.070;14.492;2023-04-03T13:30:25;3.30;;;1.80;;
74152;SDS011;62505;46.070;14.492;2023-04-03T13:32:55;2.75;;;1.75;;
74152;SDS011;62505;46.070;14.492;2023-04-03T13:35:30;3.67;;;1.80;;
74152;SDS011;62505;46.070;14.492;2023-04-03T13:38:00;1.55;;;1.40;;
74152;SDS011;62505;46.070;14.492;2023-04-03T13:40:32;2.35;;;1.75;;
74152;SDS011;62505;46.070;14.492;2023-04-03T13:43:00;1.63;;;1.50;;
74152;SDS011;62505;46.070;14.492;2023-04-03T13:45:30;1.95;;;1.70;;
74152;SDS011;62505;46.070;14.492;2023-04-03T13:50:55;1.90;;;1.60;;
74152;SDS011;62505;46.070;14.492;2023-04-03T13:53:25;2.60;;;1.88;;
74152;SDS011;62505;46.070;14.492;2023-04-03T13:55:58;3.75;;;1.83;;
74152;SDS011;62505;46.070;14.492;2023-04-03T13:58:31;1.95;;;1.75;;
74152;SDS011;62505;46.070;14.492;2023-04-03T14:01:00;2.88;;;1.90;;
74152;SDS011;62505;46.070;14.492;2023-04-03T14:03:37;1.52;;;1.35;;
74152;SDS011;62505;46.070;14.492;2023-04-03T14:06:08;2.15;;;1.65;;
74152;SDS011;62505;46.070;14.492;2023-04-03T14:08:39;3.15;;;1.80;;
74152;SDS011;62505;46.070;14.492;2023-04-03T14:11:09;3.08;;;1.65;;
74152;SDS011;62505;46.070;14.492;2023-04-03T14:13:40;3.53;;;1.90;;
74152;SDS011;62505;46.070;14.492;2023-04-03T14:16:11;11.55;;;1.73;;
74152;SDS011;62505;46.070;14.492;2023-04-03T14:18:40;4.95;;;1.83;;
74152;SDS011;62505;46.070;14.492;2023-04-03T14:21:14;2.65;;;1.50;;
74152;SDS011;62505;46.070;14.492;2023-04-03T14:23:43;3.35;;;1.77;;
74152;SDS011;62505;46.070;14.492;2023-04-03T14:26:13;2.25;;;1.77;;
74152;SDS011;62505;46.070;14.492;2023-04-03T14:28:43;2.58;;;1.65;;
74152;SDS011;62505;46.070;14.492;2023-04-03T14:31:11;2.42;;;1.48;;
74152;SDS011;62505;46.070;14.492;2023-04-03T14:33:39;2.30;;;1.63;;
74152;SDS011;62505;46.070;14.492;2023-04-03T14:36:10;2.05;;;1.58;;
74152;SDS011;62505;46.070;14.492;2023-04-03T14:38:39;3.40;;;1.63;;
74152;SDS011;62505;46.070;14.492;2023-04-03T14:41:07;2.30;;;1.60;;
74152;SDS011;62505;46.070;14.492;2023-04-03T14:43:38;4.68;;;1.98;;
74152;SDS011;62505;46.070;14.492;2023-04-03T14:46:08;3.40;;;2.20;;
74152;SDS011;62505;46.070;14.492;2023-04-03T14:48:39;1.77;;;1.63;;
74152;SDS011;62505;46.070;14.492;2023-04-03T14:51:06;1.50;;;1.30;;
74152;SDS011;62505;46.070;14.492;2023-04-03T14:53:36;1.63;;;1.48;;
74152;SDS011;62505;46.070;14.492;2023-04-03T14:56:05;2.53;;;1.58;;
74152;SDS011;62505;46.070;14.492;2023-04-03T14:58:36;2.03;;;1.35;;
74152;SDS011;62505;46.070;14.492;2023-04-03T15:01:05;2.15;;;1.60;;
74152;SDS011;62505;46.070;14.492;2023-04-03T15:03:32;2.85;;;1.55;;
74152;SDS011;62505;46.070;14.492;2023-04-03T15:05:59;3.15;;;1.52;;
74152;SDS011;62505;46.070;14.492;2023-04-03T15:08:26;2.28;;;1.45;;
74152;SDS011;62505;46.070;14.492;2023-04-03T15:10:56;1.30;;;1.20;;
74152;SDS011;62505;46.070;14.492;2023-04-03T15:13:23;1.67;;;1.45;;
74152;SDS011;62505;46.070;14.492;2023-04-03T15:15:52;1.88;;;1.55;;
74152;SDS011;62505;46.070;14.492;2023-04-03T15:18:20;1.40;;;1.30;;
74152;SDS011;62505;46.070;14.492;2023-04-03T15:20:49;2.17;;;1.73;;